sensor_id;sensor_type;location;lat;lon;timestamp;pressure;altitude;pressure_sealevel;temperature;humidity
29247;BME280;16272;48.188;9.964;2023-03-29T00:02:22;96271.84;;;4.81;76.46
29247;BME280;16272;48.188;9.964;2023-03-29T00:04:56;96276.63;;;4.08;78.24
29247;BME280;16272;48.188;9.964;2023-03-29T00:07:27;96265.91;;;4.51;76.75
29247;BME280;16272;48.188;9.964;2023-03-29T00:09:54;96257.81;;;4.80;74.79
29247;BME280;16272;48.188;9.964;2023-03-29T00:12:20;96240.63;;;4.49;74.43
29247;BME280;16272;48.188;9.964;2023-03-29T00:14:45;96200.22;;;4.37;73.22
29247;BME280;16272;48.188;9.964;2023-03-29T00:17:11;96212.44;;;4.38;75.32
29247;BME280;16272;48.188;9.964;2023-03-29T00:19:36;96229.63;;;4.16;77.76
29247;BME280;16272;48.188;9.964;2023-03-29T00:22:02;96244.88;;;4.51;75.95
29247;BME280;16272;48.188;9.964;2023-03-29T00:24:30;96250.53;;;4.45;75.33
29247;BME280;16272;48.188;9.964;2023-03-29T00:26:56;96241.81;;;4.83;72.77
29247;BME280;16272;48.188;9.964;2023-03-29T00:29:21;96221.59;;;4.45;73.89
29247;BME280;16272;48.188;9.964;2023-03-29T00:31:46;96200.34;;;3.82;79.23
29247;BME280;16272;48.188;9.964;2023-03-29T00:34:19;96214.81;;;4.15;77.84
29247;BME280;16272;48.188;9.964;2023-03-29T00:36:45;96212.09;;;4.17;78.30
29247;BME280;16272;48.188;9.964;2023-03-29T00:39:10;96210.56;;;4.66;75.54
29247;BME280;16272;48.188;9.964;2023-03-29T00:41:35;96206.97;;;4.41;76.38
29247;BME280;16272;48.188;9.964;2023-03-29T00:44:03;96202.34;;;4.32;77.04
29247;BME280;16272;48.188;9.964;2023-03-29T00:46:29;96203.34;;;4.16;77.11
29247;BME280;16272;48.188;9.964;2023-03-29T00:49:08;96202.50;;;4.16;77.51
29247;BME280;16272;48.188;9.964;2023-03-29T00:51:38;96187.78;;;4.26;76.10
29247;BME280;16272;48.188;9.964;2023-03-29T00:54:09;96184.22;;;4.14;76.11
29247;BME280;16272;48.188;9.964;2023-03-29T00:56:39;96184.22;;;4.14;76.02
29247;BME280;16272;48.188;9.964;2023-03-29T00:59:20;96182.97;;;4.20;76.05
29247;BME280;16272;48.188;9.964;2023-03-29T01:02:00;96176.84;;;4.19;76.78
29247;BME280;16272;48.188;9.964;2023-03-29T01:04:31;96186.47;;;4.33;75.68
29247;BME280;16272;48.188;9.964;2023-03-29T01:07:10;96183.84;;;4.33;76.31
29247;BME280;16272;48.188;9.964;2023-03-29T01:09:45;96177.16;;;4.02;77.15
29247;BME280;16272;48.188;9.964;2023-03-29T01:12:17;96175.28;;;3.77;79.86
29247;BME280;16272;48.188;9.964;2023-03-29T01:14:53;96166.81;;;3.59;80.16
29247;BME280;16272;48.188;9.964;2023-03-29T01:17:19;96164.75;;;4.04;80.35
29247;BME280;16272;48.188;9.964;2023-03-29T01:20:01;96147.44;;;4.40;78.17
29247;BME280;16272;48.188;9.964;2023-03-29T01:25:26;96140.50;;;4.13;78.12
29247;BME280;16272;48.188;9.964;2023-03-29T01:28:08;96140.03;;;3.94;78.34
29247;BME280;16272;48.188;9.964;2023-03-29T01:30:40;96142.34;;;3.85;78.18
29247;BME280;16272;48.188;9.964;2023-03-29T01:33:12;96146.16;;;4.58;74.90
29247;BME280;16272;48.188;9.964;2023-03-29T01:35:43;96142.47;;;4.74;72.51
29247;BME280;16272;48.188;9.964;2023-03-29T01:38:20;96139.84;;;3.97;75.81
29247;BME280;16272;48.188;9.964;2023-03-29T01:40:47;96142.38;;;4.37;75.79
29247;BME280;16272;48.188;9.964;2023-03-29T01:46:17;96147.22;;;4.30;76.02
29247;BME280;16272;48.188;9.964;2023-03-29T01:48:58;96144.91;;;4.38;75.82
29247;BME280;16272;48.188;9.964;2023-03-29T01:51:40;96143.19;;;3.99;78.57
29247;BME280;16272;48.188;9.964;2023-03-29T01:54:12;96120.25;;;3.88;77.83
29247;BME280;16272;48.188;9.964;2023-03-29T01:56:43;96123.13;;;4.23;77.05
29247;BME280;16272;48.188;9.964;2023-03-29T01:59:13;96117.72;;;3.86;78.65
29247;BME280;16272;48.188;9.964;2023-03-29T02:01:44;96119.63;;;3.84;77.62
29247;BME280;16272;48.188;9.964;2023-03-29T02:04:17;96117.94;;;3.83;78.45
29247;BME280;16272;48.188;9.964;2023-03-29T02:06:44;96116.59;;;4.42;77.18
29247;BME280;16272;48.188;9.964;2023-03-29T02:09:10;96116.28;;;4.47;75.93
29247;BME280;16272;48.188;9.964;2023-03-29T02:11:41;96118.81;;;4.74;75.44
29247;BME280;16272;48.188;9.964;2023-03-29T02:14:07;96126.91;;;5.08;72.90
29247;BME280;16272;48.188;9.964;2023-03-29T02:16:37;96114.59;;;4.46;75.11
29247;BME280;16272;48.188;9.964;2023-03-29T02:19:04;96114.50;;;4.47;76.02
29247;BME280;16272;48.188;9.964;2023-03-29T02:21:59;96104.66;;;4.75;73.81
29247;BME280;16272;48.188;9.964;2023-03-29T02:24:29;96101.41;;;4.71;74.65
29247;BME280;16272;48.188;9.964;2023-03-29T02:26:59;96108.63;;;4.93;72.13
29247;BME280;16272;48.188;9.964;2023-03-29T02:29:25;96119.66;;;4.36;76.01
29247;BME280;16272;48.188;9.964;2023-03-29T02:31:58;96112.72;;;4.35;77.04
29247;BME280;16272;48.188;9.964;2023-03-29T02:34:49;96096.41;;;5.05;70.56
29247;BME280;16272;48.188;9.964;2023-03-29T02:37:21;96104.84;;;4.97;73.34
29247;BME280;16272;48.188;9.964;2023-03-29T02:39:49;96110.81;;;4.63;74.71
29247;BME280;16272;48.188;9.964;2023-03-29T02:42:17;96093.66;;;5.07;70.66
29247;BME280;16272;48.188;9.964;2023-03-29T02:44:45;96084.63;;;5.22;69.45
29247;BME280;16272;48.188;9.964;2023-03-29T02:47:17;96065.88;;;5.51;68.20
29247;BME280;16272;48.188;9.964;2023-03-29T02:49:44;96057.81;;;5.41;68.84
29247;BME280;16272;48.188;9.964;2023-03-29T02:52:16;96039.44;;;5.75;66.95
29247;BME280;16272;48.188;9.964;2023-03-29T02:54:45;96055.53;;;5.83;66.22
29247;BME280;16272;48.188;9.964;2023-03-29T02:57:12;96037.94;;;5.84;65.59
29247;BME280;16272;48.188;9.964;2023-03-29T02:59:38;96038.63;;;5.75;67.29
29247;BME280;16272;48.188;9.964;2023-03-29T03:02:05;96028.16;;;5.97;66.39
29247;BME280;16272;48.188;9.964;2023-03-29T03:04:31;96025.00;;;5.92;67.94
29247;BME280;16272;48.188;9.964;2023-03-29T03:06:58;96008.06;;;5.83;66.57
29247;BME280;16272;48.188;9.964;2023-03-29T03:09:23;96005.28;;;5.62;68.14
29247;BME280;16272;48.188;9.964;2023-03-29T03:11:48;96008.69;;;5.87;67.77
29247;BME280;16272;48.188;9.964;2023-03-29T03:14:14;96015.59;;;5.65;69.18
29247;BME280;16272;48.188;9.964;2023-03-29T03:16:40;96017.50;;;5.63;69.38
29247;BME280;16272;48.188;9.964;2023-03-29T03:19:06;96021.88;;;5.76;67.40
29247;BME280;16272;48.188;9.964;2023-03-29T03:21:31;96024.72;;;5.73;69.09
29247;BME280;16272;48.188;9.964;2023-03-29T03:23:58;96021.50;;;5.92;68.20
29247;BME280;16272;48.188;9.964;2023-03-29T03:26:23;96034.78;;;5.79;67.59
29247;BME280;16272;48.188;9.964;2023-03-29T03:28:49;96029.50;;;5.79;68.99
29247;BME280;16272;48.188;9.964;2023-03-29T03:31:15;96028.69;;;5.78;67.94
29247;BME280;16272;48.188;9.964;2023-03-29T03:33:41;96027.53;;;5.94;67.10
29247;BME280;16272;48.188;9.964;2023-03-29T03:36:08;96023.22;;;5.57;68.55
29247;BME280;16272;48.188;9.964;2023-03-29T03:38:35;96012.13;;;5.65;67.98
29247;BME280;16272;48.188;9.964;2023-03-29T03:41:01;96005.53;;;5.59;66.83
29247;BME280;16272;48.188;9.964;2023-03-29T03:43:27;96023.59;;;5.64;67.71
29247;BME280;16272;48.188;9.964;2023-03-29T03:45:54;96016.47;;;5.88;67.00
29247;BME280;16272;48.188;9.964;2023-03-29T03:48:20;96018.28;;;5.88;65.97
29247;BME280;16272;48.188;9.964;2023-03-29T03:50:51;96013.06;;;5.99;65.63
29247;BME280;16272;48.188;9.964;2023-03-29T03:53:17;96018.56;;;6.07;66.00
29247;BME280;16272;48.188;9.964;2023-03-29T03:55:51;96026.13;;;6.12;65.25
29247;BME280;16272;48.188;9.964;2023-03-29T03:58:17;96020.75;;;6.36;65.19
29247;BME280;16272;48.188;9.964;2023-03-29T04:00:45;96013.53;;;6.61;63.44
29247;BME280;16272;48.188;9.964;2023-03-29T04:03:11;96010.69;;;6.30;64.51
29247;BME280;16272;48.188;9.964;2023-03-29T04:05:42;96002.28;;;6.25;65.30
29247;BME280;16272;48.188;9.964;2023-03-29T04:08:09;96005.09;;;5.88;68.22
29247;BME280;16272;48.188;9.964;2023-03-29T04:10:35;96001.75;;;5.86;69.41
29247;BME280;16272;48.188;9.964;2023-03-29T04:13:01;96001.19;;;6.28;65.78
29247;BME280;16272;48.188;9.964;2023-03-29T04:15:27;96001.53;;;6.68;64.45
29247;BME280;16272;48.188;9.964;2023-03-29T04:17:55;96015.44;;;6.59;64.51
29247;BME280;16272;48.188;9.964;2023-03-29T04:20:21;96015.78;;;6.66;64.53
29247;BME280;16272;48.188;9.964;2023-03-29T04:22:46;96019.66;;;6.39;65.70
29247;BME280;16272;48.188;9.964;2023-03-29T04:25:12;96012.09;;;6.46;64.83
29247;BME280;16272;48.188;9.964;2023-03-29T04:27:38;96005.63;;;6.16;67.99
29247;BME280;16272;48.188;9.964;2023-03-29T04:30:03;96003.41;;;5.76;69.69
29247;BME280;16272;48.188;9.964;2023-03-29T04:32:29;96008.56;;;5.77;68.54
29247;BME280;16272;48.188;9.964;2023-03-29T04:34:55;96006.13;;;5.27;73.21
29247;BME280;16272;48.188;9.964;2023-03-29T04:37:20;96009.59;;;4.55;77.76
29247;BME280;16272;48.188;9.964;2023-03-29T04:39:48;96007.38;;;4.86;77.72
29247;BME280;16272;48.188;9.964;2023-03-29T04:42:14;95998.69;;;5.21;75.96
29247;BME280;16272;48.188;9.964;2023-03-29T04:44:39;96006.09;;;5.16;74.92
29247;BME280;16272;48.188;9.964;2023-03-29T04:47:06;95994.31;;;5.44;72.53
29247;BME280;16272;48.188;9.964;2023-03-29T04:49:32;96008.34;;;5.45;72.10
29247;BME280;16272;48.188;9.964;2023-03-29T04:51:57;96004.78;;;5.57;70.79
29247;BME280;16272;48.188;9.964;2023-03-29T04:54:25;96002.41;;;5.65;71.07
29247;BME280;16272;48.188;9.964;2023-03-29T04:56:50;96011.84;;;5.57;70.97
29247;BME280;16272;48.188;9.964;2023-03-29T04:59:16;96019.81;;;5.79;69.74
29247;BME280;16272;48.188;9.964;2023-03-29T05:01:42;96011.22;;;5.42;70.29
29247;BME280;16272;48.188;9.964;2023-03-29T05:04:07;96011.63;;;5.24;71.04
29247;BME280;16272;48.188;9.964;2023-03-29T05:06:34;96014.97;;;5.15;72.49
29247;BME280;16272;48.188;9.964;2023-03-29T05:08:59;96008.59;;;5.42;72.30
29247;BME280;16272;48.188;9.964;2023-03-29T05:11:25;96007.06;;;5.15;73.20
29247;BME280;16272;48.188;9.964;2023-03-29T05:13:51;96010.53;;;5.62;70.80
29247;BME280;16272;48.188;9.964;2023-03-29T05:16:16;96006.03;;;5.64;69.72
29247;BME280;16272;48.188;9.964;2023-03-29T05:18:42;96002.28;;;6.02;68.04
29247;BME280;16272;48.188;9.964;2023-03-29T05:21:08;96003.84;;;6.28;66.80
29247;BME280;16272;48.188;9.964;2023-03-29T05:23:33;95997.38;;;6.43;65.22
29247;BME280;16272;48.188;9.964;2023-03-29T05:25:59;95991.63;;;6.38;65.30
29247;BME280;16272;48.188;9.964;2023-03-29T05:28:24;96009.59;;;6.33;66.42
29247;BME280;16272;48.188;9.964;2023-03-29T05:31:03;96010.31;;;6.46;65.45
29247;BME280;16272;48.188;9.964;2023-03-29T05:33:29;96016.88;;;6.63;65.04
29247;BME280;16272;48.188;9.964;2023-03-29T05:36:03;96011.13;;;6.69;64.93
29247;BME280;16272;48.188;9.964;2023-03-29T05:38:29;96015.53;;;6.80;64.73
29247;BME280;16272;48.188;9.964;2023-03-29T05:40:57;96012.91;;;6.80;64.48
29247;BME280;16272;48.188;9.964;2023-03-29T05:43:23;96013.44;;;6.62;65.35
29247;BME280;16272;48.188;9.964;2023-03-29T05:45:51;96009.22;;;6.60;66.91
29247;BME280;16272;48.188;9.964;2023-03-29T05:48:17;96021.44;;;6.72;66.33
29247;BME280;16272;48.188;9.964;2023-03-29T05:50:46;96016.44;;;6.47;67.10
29247;BME280;16272;48.188;9.964;2023-03-29T05:53:14;96015.94;;;7.08;65.48
29247;BME280;16272;48.188;9.964;2023-03-29T05:55:40;96025.25;;;6.91;64.87
29247;BME280;16272;48.188;9.964;2023-03-29T05:58:07;96036.75;;;6.90;66.04
29247;BME280;16272;48.188;9.964;2023-03-29T06:00:32;96037.75;;;6.77;67.35
29247;BME280;16272;48.188;9.964;2023-03-29T06:03:01;96040.84;;;6.94;66.09
29247;BME280;16272;48.188;9.964;2023-03-29T06:05:26;96031.94;;;6.95;65.79
29247;BME280;16272;48.188;9.964;2023-03-29T06:07:52;96028.50;;;6.83;67.10
29247;BME280;16272;48.188;9.964;2023-03-29T06:10:17;96025.47;;;6.99;66.06
29247;BME280;16272;48.188;9.964;2023-03-29T06:12:42;96024.75;;;6.97;66.42
29247;BME280;16272;48.188;9.964;2023-03-29T06:15:08;96026.22;;;6.78;68.44
29247;BME280;16272;48.188;9.964;2023-03-29T06:17:34;96030.13;;;7.39;65.88
29247;BME280;16272;48.188;9.964;2023-03-29T06:20:00;96036.03;;;6.99;66.77
29247;BME280;16272;48.188;9.964;2023-03-29T06:22:26;96041.00;;;7.25;66.38
29247;BME280;16272;48.188;9.964;2023-03-29T06:24:52;96034.53;;;7.17;66.67
29247;BME280;16272;48.188;9.964;2023-03-29T06:27:17;96033.16;;;6.91;66.58
29247;BME280;16272;48.188;9.964;2023-03-29T06:29:43;96024.38;;;7.02;67.61
29247;BME280;16272;48.188;9.964;2023-03-29T06:32:09;96032.34;;;6.79;68.81
29247;BME280;16272;48.188;9.964;2023-03-29T06:34:35;96036.19;;;6.75;69.02
29247;BME280;16272;48.188;9.964;2023-03-29T06:37:01;96030.97;;;7.07;67.51
29247;BME280;16272;48.188;9.964;2023-03-29T06:39:26;96031.56;;;6.99;67.83
29247;BME280;16272;48.188;9.964;2023-03-29T06:41:51;96033.38;;;6.99;68.36
29247;BME280;16272;48.188;9.964;2023-03-29T06:44:17;96015.91;;;7.51;66.95
29247;BME280;16272;48.188;9.964;2023-03-29T06:46:42;96016.63;;;7.53;67.42
29247;BME280;16272;48.188;9.964;2023-03-29T06:49:08;96016.63;;;7.53;67.21
29247;BME280;16272;48.188;9.964;2023-03-29T06:51:33;96033.69;;;7.70;68.30
29247;BME280;16272;48.188;9.964;2023-03-29T06:53:59;96030.69;;;7.75;67.00
29247;BME280;16272;48.188;9.964;2023-03-29T06:56:25;96028.41;;;7.91;67.76
29247;BME280;16272;48.188;9.964;2023-03-29T06:58:50;96025.25;;;7.55;66.92
29247;BME280;16272;48.188;9.964;2023-03-29T07:01:16;96040.88;;;8.01;67.80
29247;BME280;16272;48.188;9.964;2023-03-29T07:03:41;96046.63;;;7.85;67.68
29247;BME280;16272;48.188;9.964;2023-03-29T07:06:09;96040.50;;;8.05;65.56
29247;BME280;16272;48.188;9.964;2023-03-29T07:08:39;96054.09;;;8.83;64.24
29247;BME280;16272;48.188;9.964;2023-03-29T07:11:10;96062.50;;;8.98;62.32
29247;BME280;16272;48.188;9.964;2023-03-29T07:13:38;96053.19;;;8.63;61.95
29247;BME280;16272;48.188;9.964;2023-03-29T07:16:04;96058.59;;;8.93;63.38
29247;BME280;16272;48.188;9.964;2023-03-29T07:18:30;96066.06;;;8.78;65.11
29247;BME280;16272;48.188;9.964;2023-03-29T07:20:56;96055.91;;;7.79;64.16
29247;BME280;16272;48.188;9.964;2023-03-29T07:23:21;96059.47;;;8.62;64.71
29247;BME280;16272;48.188;9.964;2023-03-29T07:25:46;96054.69;;;8.87;63.71
29247;BME280;16272;48.188;9.964;2023-03-29T07:28:11;96053.28;;;8.83;62.71
29247;BME280;16272;48.188;9.964;2023-03-29T07:30:37;96043.53;;;8.93;63.00
29247;BME280;16272;48.188;9.964;2023-03-29T07:33:02;96033.19;;;8.71;64.34
29247;BME280;16272;48.188;9.964;2023-03-29T07:35:28;96034.72;;;8.83;61.96
29247;BME280;16272;48.188;9.964;2023-03-29T07:37:54;96022.09;;;9.16;61.19
29247;BME280;16272;48.188;9.964;2023-03-29T07:40:20;96022.28;;;8.74;63.86
29247;BME280;16272;48.188;9.964;2023-03-29T07:42:51;96027.25;;;9.08;62.16
29247;BME280;16272;48.188;9.964;2023-03-29T07:45:19;96027.13;;;9.19;60.80
29247;BME280;16272;48.188;9.964;2023-03-29T07:47:49;96031.75;;;9.75;60.69
29247;BME280;16272;48.188;9.964;2023-03-29T07:50:17;96031.03;;;9.93;59.90
29247;BME280;16272;48.188;9.964;2023-03-29T07:52:42;96033.84;;;9.52;58.88
29247;BME280;16272;48.188;9.964;2023-03-29T07:55:10;96030.75;;;9.96;58.16
29247;BME280;16272;48.188;9.964;2023-03-29T07:57:36;96034.06;;;10.18;59.01
29247;BME280;16272;48.188;9.964;2023-03-29T08:00:03;96037.47;;;10.00;59.30
29247;BME280;16272;48.188;9.964;2023-03-29T08:02:44;96051.72;;;9.60;58.94
29247;BME280;16272;48.188;9.964;2023-03-29T08:05:11;96034.69;;;9.92;57.31
29247;BME280;16272;48.188;9.964;2023-03-29T08:07:38;96036.63;;;10.57;58.50
29247;BME280;16272;48.188;9.964;2023-03-29T08:10:13;96039.28;;;9.80;55.50
29247;BME280;16272;48.188;9.964;2023-03-29T08:12:40;96020.28;;;9.85;57.25
29247;BME280;16272;48.188;9.964;2023-03-29T08:15:06;96020.63;;;10.39;58.52
29247;BME280;16272;48.188;9.964;2023-03-29T08:17:33;96025.78;;;10.40;57.53
29247;BME280;16272;48.188;9.964;2023-03-29T08:19:59;96026.78;;;10.20;56.22
29247;BME280;16272;48.188;9.964;2023-03-29T08:22:24;96029.38;;;9.92;58.27
29247;BME280;16272;48.188;9.964;2023-03-29T08:24:49;96029.06;;;10.05;55.47
29247;BME280;16272;48.188;9.964;2023-03-29T08:27:15;96033.63;;;10.42;55.88
29247;BME280;16272;48.188;9.964;2023-03-29T08:29:41;96021.38;;;10.02;56.67
29247;BME280;16272;48.188;9.964;2023-03-29T08:32:06;96029.06;;;10.05;57.39
29247;BME280;16272;48.188;9.964;2023-03-29T08:34:32;96026.97;;;10.56;56.64
29247;BME280;16272;48.188;9.964;2023-03-29T08:36:59;96029.31;;;10.11;53.42
29247;BME280;16272;48.188;9.964;2023-03-29T08:39:25;96034.25;;;9.97;55.83
29247;BME280;16272;48.188;9.964;2023-03-29T08:42:19;96036.31;;;10.32;56.92
29247;BME280;16272;48.188;9.964;2023-03-29T08:45:15;96033.50;;;10.71;54.39
29247;BME280;16272;48.188;9.964;2023-03-29T08:50:44;96027.59;;;10.50;54.63
29247;BME280;16272;48.188;9.964;2023-03-29T08:53:40;96043.13;;;10.72;54.54
29247;BME280;16272;48.188;9.964;2023-03-29T08:56:35;96041.88;;;11.04;53.84
29247;BME280;16272;48.188;9.964;2023-03-29T08:59:02;96041.75;;;10.68;55.16
29247;BME280;16272;48.188;9.964;2023-03-29T09:01:32;96039.06;;;10.40;54.54
29247;BME280;16272;48.188;9.964;2023-03-29T09:06:31;96038.16;;;11.15;52.29
29247;BME280;16272;48.188;9.964;2023-03-29T09:08:56;96044.44;;;10.96;54.05
29247;BME280;16272;48.188;9.964;2023-03-29T09:14:15;96037.91;;;10.80;53.68
29247;BME280;16272;48.188;9.964;2023-03-29T09:17:15;96043.94;;;10.82;53.73
29247;BME280;16272;48.188;9.964;2023-03-29T09:20:06;96043.13;;;10.72;53.58
29247;BME280;16272;48.188;9.964;2023-03-29T09:25:46;96034.78;;;11.58;52.38
29247;BME280;16272;48.188;9.964;2023-03-29T09:28:18;96033.09;;;11.21;51.41
29247;BME280;16272;48.188;9.964;2023-03-29T09:30:51;96041.34;;;11.64;51.16
29247;BME280;16272;48.188;9.964;2023-03-29T09:33:25;96034.38;;;10.90;54.95
29247;BME280;16272;48.188;9.964;2023-03-29T09:36:16;96031.69;;;10.72;53.84
29247;BME280;16272;48.188;9.964;2023-03-29T09:38:45;96030.84;;;10.99;54.52
29247;BME280;16272;48.188;9.964;2023-03-29T09:41:34;96024.81;;;11.25;52.24
29247;BME280;16272;48.188;9.964;2023-03-29T09:44:07;96026.56;;;11.34;53.63
29247;BME280;16272;48.188;9.964;2023-03-29T09:46:46;96021.78;;;11.37;54.31
29247;BME280;16272;48.188;9.964;2023-03-29T09:49:23;96018.44;;;11.53;53.74
29247;BME280;16272;48.188;9.964;2023-03-29T09:51:54;96016.03;;;10.96;55.79
29247;BME280;16272;48.188;9.964;2023-03-29T09:54:21;96015.78;;;11.35;53.17
29247;BME280;16272;48.188;9.964;2023-03-29T09:56:46;96022.16;;;11.25;54.64
29247;BME280;16272;48.188;9.964;2023-03-29T09:59:12;96015.31;;;11.22;52.82
29247;BME280;16272;48.188;9.964;2023-03-29T10:01:40;96013.94;;;11.18;51.31
29247;BME280;16272;48.188;9.964;2023-03-29T10:04:08;96009.06;;;11.85;55.43
29247;BME280;16272;48.188;9.964;2023-03-29T10:06:34;96001.88;;;11.95;53.67
29247;BME280;16272;48.188;9.964;2023-03-29T10:09:01;96003.16;;;12.44;51.49
29247;BME280;16272;48.188;9.964;2023-03-29T10:11:34;96000.63;;;12.68;50.84
29247;BME280;16272;48.188;9.964;2023-03-29T10:14:13;95990.28;;;12.65;49.71
29247;BME280;16272;48.188;9.964;2023-03-29T10:16:42;95984.28;;;12.29;50.96
29247;BME280;16272;48.188;9.964;2023-03-29T10:19:21;95985.00;;;12.13;50.20
29247;BME280;16272;48.188;9.964;2023-03-29T10:21:50;95989.97;;;12.68;52.98
29247;BME280;16272;48.188;9.964;2023-03-29T10:24:26;95987.19;;;12.86;50.41
29247;BME280;16272;48.188;9.964;2023-03-29T10:26:55;95989.00;;;12.78;50.52
29247;BME280;16272;48.188;9.964;2023-03-29T10:29:23;95989.13;;;12.68;50.99
29247;BME280;16272;48.188;9.964;2023-03-29T10:31:49;95989.19;;;12.42;50.43
29247;BME280;16272;48.188;9.964;2023-03-29T10:34:16;95978.34;;;12.78;50.96
29247;BME280;16272;48.188;9.964;2023-03-29T10:36:45;95994.66;;;12.75;46.99
29247;BME280;16272;48.188;9.964;2023-03-29T10:39:15;95996.31;;;12.07;51.63
29247;BME280;16272;48.188;9.964;2023-03-29T10:41:41;95997.06;;;12.25;52.64
29247;BME280;16272;48.188;9.964;2023-03-29T10:44:24;95988.63;;;12.64;49.75
29247;BME280;16272;48.188;9.964;2023-03-29T10:46:50;95987.19;;;12.44;50.67
29247;BME280;16272;48.188;9.964;2023-03-29T10:49:20;95978.72;;;12.91;50.47
29247;BME280;16272;48.188;9.964;2023-03-29T10:51:47;95995.34;;;12.85;49.13
29247;BME280;16272;48.188;9.964;2023-03-29T10:54:17;95983.81;;;13.19;50.58
29247;BME280;16272;48.188;9.964;2023-03-29T10:56:55;95990.44;;;12.29;48.71
29247;BME280;16272;48.188;9.964;2023-03-29T10:59:31;95998.34;;;12.82;49.57
29247;BME280;16272;48.188;9.964;2023-03-29T11:02:33;95995.31;;;12.77;51.12
29247;BME280;16272;48.188;9.964;2023-03-29T11:08:18;95978.41;;;12.94;50.77
29247;BME280;16272;48.188;9.964;2023-03-29T11:21:40;95957.28;;;14.24;48.46
29247;BME280;16272;48.188;9.964;2023-03-29T11:24:26;95950.81;;;15.06;46.14
29247;BME280;16272;48.188;9.964;2023-03-29T11:35:07;95954.72;;;14.47;46.80
29247;BME280;16272;48.188;9.964;2023-03-29T11:37:50;95959.38;;;14.53;48.29
29247;BME280;16272;48.188;9.964;2023-03-29T11:40:27;95962.38;;;14.59;45.22
29247;BME280;16272;48.188;9.964;2023-03-29T11:42:55;95949.41;;;14.87;48.98
29247;BME280;16272;48.188;9.964;2023-03-29T11:45:36;95953.38;;;15.77;47.41
29247;BME280;16272;48.188;9.964;2023-03-29T11:48:06;95941.16;;;15.74;44.93
29247;BME280;16272;48.188;9.964;2023-03-29T11:50:48;95946.38;;;15.21;43.03
29247;BME280;16272;48.188;9.964;2023-03-29T11:53:40;95950.00;;;14.74;47.26
29247;BME280;16272;48.188;9.964;2023-03-29T11:56:13;95943.66;;;15.30;44.29
29247;BME280;16272;48.188;9.964;2023-03-29T11:58:45;95945.25;;;15.16;45.72
29247;BME280;16272;48.188;9.964;2023-03-29T12:01:16;95952.16;;;14.70;46.58
29247;BME280;16272;48.188;9.964;2023-03-29T12:03:50;95952.03;;;14.56;45.71
29247;BME280;16272;48.188;9.964;2023-03-29T12:09:02;95945.22;;;14.45;47.08
29247;BME280;16272;48.188;9.964;2023-03-29T12:11:55;95945.72;;;14.48;45.98
29247;BME280;16272;48.188;9.964;2023-03-29T12:17:14;95936.66;;;14.66;45.26
29247;BME280;16272;48.188;9.964;2023-03-29T12:20:23;95933.63;;;14.13;46.39
29247;BME280;16272;48.188;9.964;2023-03-29T12:22:48;95928.81;;;14.64;44.99
29247;BME280;16272;48.188;9.964;2023-03-29T12:25:18;95940.13;;;14.19;45.24
29247;BME280;16272;48.188;9.964;2023-03-29T12:27:53;95938.41;;;14.34;45.26
29247;BME280;16272;48.188;9.964;2023-03-29T12:38:42;95940.38;;;14.48;45.96
29247;BME280;16272;48.188;9.964;2023-03-29T12:41:17;95936.50;;;14.59;44.96
29247;BME280;16272;48.188;9.964;2023-03-29T12:43:44;95935.13;;;14.15;45.00
29247;BME280;16272;48.188;9.964;2023-03-29T12:46:21;95929.59;;;14.73;45.95
29247;BME280;16272;48.188;9.964;2023-03-29T12:48:52;95927.00;;;15.19;46.21
29247;BME280;16272;48.188;9.964;2023-03-29T12:51:22;95922.16;;;14.60;45.17
29247;BME280;16272;48.188;9.964;2023-03-29T12:53:55;95917.41;;;15.33;45.46
29247;BME280;16272;48.188;9.964;2023-03-29T12:56:38;95921.28;;;14.99;43.46
29247;BME280;16272;48.188;9.964;2023-03-29T12:59:16;95913.38;;;15.52;47.72
29247;BME280;16272;48.188;9.964;2023-03-29T13:01:58;95918.88;;;14.81;44.52
29247;BME280;16272;48.188;9.964;2023-03-29T13:04:47;95915.59;;;15.02;46.88
29247;BME280;16272;48.188;9.964;2023-03-29T13:07:26;95923.53;;;14.87;47.55
29247;BME280;16272;48.188;9.964;2023-03-29T13:10:06;95909.59;;;15.00;45.82
29247;BME280;16272;48.188;9.964;2023-03-29T13:12:40;95909.22;;;14.72;45.12
29247;BME280;16272;48.188;9.964;2023-03-29T13:23:48;95883.22;;;16.71;45.33
29247;BME280;16272;48.188;9.964;2023-03-29T13:31:42;95888.94;;;15.78;45.81
29247;BME280;16272;48.188;9.964;2023-03-29T13:39:50;95886.06;;;15.19;42.74
29247;BME280;16272;48.188;9.964;2023-03-29T13:44:46;95879.53;;;16.42;44.40
29247;BME280;16272;48.188;9.964;2023-03-29T13:49:58;95889.53;;;15.42;46.23
29247;BME280;16272;48.188;9.964;2023-03-29T13:52:27;95878.94;;;15.49;45.02
29247;BME280;16272;48.188;9.964;2023-03-29T13:55:03;95877.94;;;15.88;46.11
29247;BME280;16272;48.188;9.964;2023-03-29T13:57:37;95867.97;;;15.82;43.63
29247;BME280;16272;48.188;9.964;2023-03-29T14:00:20;95867.25;;;16.33;44.44
29247;BME280;16272;48.188;9.964;2023-03-29T14:02:58;95876.22;;;16.10;46.56
29247;BME280;16272;48.188;9.964;2023-03-29T14:05:37;95870.19;;;15.93;44.96
29247;BME280;16272;48.188;9.964;2023-03-29T14:08:15;95869.19;;;15.56;45.01
29247;BME280;16272;48.188;9.964;2023-03-29T14:10:45;95861.25;;;16.31;44.34
29247;BME280;16272;48.188;9.964;2023-03-29T14:13:16;95863.81;;;15.79;46.04
29247;BME280;16272;48.188;9.964;2023-03-29T14:15:55;95870.16;;;15.40;44.55
29247;BME280;16272;48.188;9.964;2023-03-29T14:18:24;95847.56;;;16.41;43.02
29247;BME280;16272;48.188;9.964;2023-03-29T14:20:54;95842.22;;;15.81;42.00
29247;BME280;16272;48.188;9.964;2023-03-29T14:23:22;95837.94;;;16.31;44.75
29247;BME280;16272;48.188;9.964;2023-03-29T14:25:48;95854.78;;;15.57;44.36
29247;BME280;16272;48.188;9.964;2023-03-29T14:28:22;95852.22;;;15.26;44.61
29247;BME280;16272;48.188;9.964;2023-03-29T14:30:48;95849.94;;;15.38;44.11
29247;BME280;16272;48.188;9.964;2023-03-29T14:33:31;95849.16;;;15.67;45.38
29247;BME280;16272;48.188;9.964;2023-03-29T14:36:00;95856.56;;;15.65;44.50
29247;BME280;16272;48.188;9.964;2023-03-29T14:38:28;95860.88;;;15.51;45.50
29247;BME280;16272;48.188;9.964;2023-03-29T14:40:59;95863.19;;;15.31;45.46
29247;BME280;16272;48.188;9.964;2023-03-29T14:43:26;95873.94;;;15.46;45.56